Flight Track Log - Related Links

Times and Time Zones

All times are in EDT time to prevent confusion due to time zone crossing. See the VH-VWO flight status page for this flight to view local times or setup timezone preferences in your user account.

Time Position Orientation Groundspeed Altitude Reporting Facility
EDT Latitude Longitude Course Direction KTS MPH feet Rate Location/Type
Tue 03:36:13 AM -26.6070 118.5323 315° West 22,000  Level Aus ATC (Calculated)
Tue 03:37:12 AM -26.5577 118.4767 315° West 22,000 -35 Level Aus ATC (Calculated)
Tue 03:38:13 AM -26.5085 118.4211 315° West 22,000 -37 Level Aus ATC (Calculated)
Tue 03:40:00 AM -26.5392 118.4557 315° West  Level FlightAware Approximate
Tue 03:40:12 AM -26.4591 118.3656 315° West 22,000  Level Aus ATC (Calculated)
Tue 03:40:57 AM -26.4098 118.3101 315° West 22,000 -46 Level Aus ATC (Calculated)
Tue 03:42:00 AM -26.3638 118.2583 315° West  Level FlightAware Approximate
Tue 03:43:00 AM -26.3199 118.2091 315° West  Level FlightAware Approximate
Tue 03:43:32 AM -26.3111 118.1992 316° Northwest 22,000  Level Aus ATC (Calculated)
Tue 03:44:37 AM -26.2617 118.1439 316° Northwest 22,000 -62 Level Aus ATC (Calculated)
Tue 03:46:00 AM -26.2010 118.0759 315° West  Level FlightAware Approximate
Tue 03:46:26 AM -26.1629 118.0333 23° Northeast 22,000  Level Aus ATC (Calculated)
Tue 03:47:22 AM -26.1629 118.0333 23° Northeast 22,000 -88 Level Aus ATC (Calculated)
Tue 03:49:00 AM -26.0911 117.9532 315° West  Level FlightAware Approximate
Tue 03:49:26 AM -26.0639 117.9230 134° Southeast 22,000  Level Aus ATC (Calculated)
Tue 03:51:00 AM -25.9950 117.8463 315° West  Level FlightAware Approximate
Tue 03:52:00 AM -25.9510 117.7974 315° West  Level FlightAware Approximate
Tue 03:52:26 AM -25.9649 117.8128 135° Southeast 22,000  Level Aus ATC (Calculated)
Tue 03:53:16 AM -26.1604 118.0345 315° West 189 217 21,400 44 Descending Aus ATC (RADAR)
Tue 03:54:41 AM -26.1165 117.9920 319° Northwest 208 239 22,100 300 Climbing Aus ATC (RADAR)
Tue 03:55:16 AM -26.0960 117.9635 309° West 173 199 22,000 -80 Descending Aus ATC (RADAR)
Tue 03:55:56 AM -26.0677 117.9347 318° Northwest 200 230 22,000  Level Aus ATC (RADAR)
Tue 03:56:46 AM -26.0302 117.8940 316° Northwest 216 249 22,000  Level Aus ATC (RADAR)
Tue 03:57:01 AM -26.0187 117.8795 311° West 223 257 22,000  Level Aus ATC (RADAR)
Tue 03:57:36 AM -25.9912 117.8517 318° Northwest 226 260 22,000  Level Aus ATC (RADAR)
Tue 03:59:05 AM -25.9200 117.7698 314° West 240 276 22,000  Level Aus ATC (RADAR)
Tue 03:59:21 AM -25.9079 117.7569 316° Northwest 237 273 22,000  Level Aus ATC (RADAR)
Tue 03:59:56 AM -25.8795 117.7254 315° West 238 274 22,000  Level Aus ATC (RADAR)
Tue 04:00:46 AM -25.8393 117.6823 316° Northwest 237 273 22,000  Level Aus ATC (RADAR)
Tue 04:01:16 AM -25.8151 117.6551 315° West 238 274 22,000  Level Aus ATC (RADAR)
Tue 04:01:50 AM -25.7870 117.6222 313° West 241 277 22,000  Level Aus ATC (RADAR)
Tue 04:02:25 AM -25.7591 117.5914 315° West 239 275 22,000 86 Level Aus ATC (RADAR)
Tue 04:03:00 AM -25.7309 117.5603 315° West 237 273 22,100 60 Climbing Aus ATC (RADAR)
Tue 04:04:05 AM -25.6787 117.5033 316° Northwest 235 270 22,100  Level Aus ATC (RADAR)
Tue 04:04:30 AM -25.6586 117.4811 315° West 236 272 22,100  Level Aus ATC (RADAR)
Tue 04:05:05 AM -25.6304 117.4483 314° West 240 276 22,100  Level Aus ATC (RADAR)
Tue 04:05:55 AM -25.5901 117.4040 315° West 238 274 22,100  Level Aus ATC (RADAR)
Tue 04:06:30 AM -25.5620 117.3736 316° Northwest 236 272 22,100  Level Aus ATC (RADAR)
Tue 04:07:20 AM -25.5218 117.3290 315° West 237 273 22,100  Level Aus ATC (RADAR)
Tue 04:07:45 AM -25.5018 117.3072 316° Northwest 236 272 22,100  Level Aus ATC (RADAR)
Tue 04:08:40 AM -25.4583 117.2609 316° Northwest 229 264 22,100  Level Aus ATC (RADAR)
Tue 04:09:05 AM -25.4383 117.2377 314° West 235 270 22,100  Level Aus ATC (RADAR)
Tue 04:09:30 AM -25.4185 117.2162 316° Northwest 234 269 22,100  Level Aus ATC (RADAR)
Tue 04:10:05 AM -25.3908 117.1864 316° Northwest 232 267 22,100  Level Aus ATC (RADAR)
Tue 04:10:49 AM -25.3549 117.1465 315° West 232 267 22,100  Level Aus ATC (RADAR)
Tue 04:11:29 AM -25.3229 117.1098 314° West 238 274 22,100  Level Aus ATC (RADAR)
Tue 04:12:14 AM -25.2861 117.0668 313° West 244 281 22,100  Level Aus ATC (RADAR)
Tue 04:12:39 AM -25.2660 117.0445 315° West 241 277 22,100  Level Aus ATC (RADAR)
Tue 04:13:19 AM -25.2340 117.0095 315° West 237 273 22,100  Level Aus ATC (RADAR)
Tue 04:14:14 AM -25.1901 116.9616 315° West 237 273 22,100  Level Aus ATC (RADAR)
Tue 04:14:39 AM -25.1709 116.9426 318° Northwest 228 262 22,100  Level Aus ATC (RADAR)
Tue 04:15:19 AM -25.1385 116.9065 315° West 235 270 22,100  Level Aus ATC (RADAR)
Tue 04:16:04 AM -25.1025 116.8668 315° West 235 270 22,100  Level Aus ATC (RADAR)
Tue 04:16:39 AM -25.0744 116.8357 315° West 236 272 22,100  Level Aus ATC (RADAR)
Tue 04:17:29 AM -25.0341 116.7919 315° West 234 269 22,100  Level Aus ATC (RADAR)
Tue 04:17:54 AM -25.0137 116.7692 315° West 239 275 22,100  Level Aus ATC (RADAR)
Tue 04:18:29 AM -24.9847 116.7419 320° Northwest 233 268 22,100  Level Aus ATC (RADAR)
Tue 04:19:19 AM -24.9427 116.6997 318° Northwest 235 270 22,100  Level Aus ATC (RADAR)
Tue 04:19:39 AM -24.9259 116.6834 319° Northwest 236 272 22,100  Level Aus ATC (RADAR)
Tue 04:20:19 AM -24.8928 116.6513 319° Northwest 230 265 22,100  Level Aus ATC (RADAR)
Tue 04:21:19 AM -24.8411 116.5991 317° Northwest 240 276 22,100  Level Aus ATC (RADAR)
Tue 04:21:53 AM -24.8117 116.5701 318° Northwest 237 273 22,100  Level Aus ATC (RADAR)
Tue 04:22:43 AM -24.7693 116.5280 318° Northwest 237 273 22,100  Level Aus ATC (RADAR)
Tue 04:23:19 AM -24.7404 116.4999 319° Northwest 232 267 22,100  Level Aus ATC (RADAR)
Tue 04:24:08 AM -24.6979 116.4581 318° Northwest 236 272 22,100  Level Aus ATC (RADAR)
Tue 04:24:38 AM -24.6721 116.4324 318° Northwest 238 274 22,100  Level Aus ATC (RADAR)
Tue 04:25:03 AM -24.6514 116.4122 319° Northwest 235 270 22,100  Level Aus ATC (RADAR)
Tue 04:25:38 AM -24.6212 116.3823 318° Northwest 237 273 22,100  Level Aus ATC (RADAR)
Tue 04:26:13 AM -24.5913 116.3527 318° Northwest 237 273 22,100  Level Aus ATC (RADAR)
Tue 04:26:53 AM -24.5579 116.3200 318° Northwest 234 269 22,100  Level Aus ATC (RADAR)
Tue 04:27:38 AM -24.5197 116.2823 318° Northwest 235 270 22,100  Level Aus ATC (RADAR)
Tue 04:28:03 AM -24.4991 116.2622 318° Northwest 232 267 22,100  Level Aus ATC (RADAR)
Tue 04:28:38 AM -24.4689 116.2326 318° Northwest 236 272 22,100  Level Aus ATC (RADAR)
Tue 04:29:33 AM -24.4224 116.1869 318° Northwest 236 272 22,100  Level Aus ATC (RADAR)
Tue 04:29:58 AM -24.4010 116.1660 318° Northwest 236 272 22,100  Level Aus ATC (RADAR)
Tue 04:30:33 AM -24.3712 116.1368 318° Northwest 237 273 22,100  Level Aus ATC (RADAR)
Tue 04:31:13 AM -24.3367 116.1031 318° Northwest 239 275 22,100  Level Aus ATC (RADAR)
Tue 04:31:53 AM -24.3024 116.0696 318° Northwest 238 274 22,100  Level Aus ATC (RADAR)
Tue 04:32:37 AM -24.2646 116.0327 318° Northwest 235 270 22,100  Level Aus ATC (RADAR)
Tue 04:33:02 AM -24.2442 116.0124 318° Northwest 231 266 22,100  Level Aus ATC (RADAR)
Tue 04:33:37 AM -24.2133 115.9827 319° Northwest 239 275 22,100  Level Aus ATC (RADAR)
Tue 04:34:47 AM -24.1544 115.9250 318° Northwest 232 267 22,100  Level Aus ATC (RADAR)
Tue 04:35:12 AM -24.1330 115.9042 318° Northwest 234 269 22,100  Level Aus ATC (RADAR)
Tue 04:35:52 AM -24.0989 115.8710 318° Northwest 236 272 22,100  Level Aus ATC (RADAR)
Tue 04:36:32 AM -24.0648 115.8380 319° Northwest 234 269 22,100  Level Aus ATC (RADAR)
Tue 04:37:07 AM -24.0347 115.8090 319° Northwest 235 270 22,100  Level Aus ATC (RADAR)
Tue 04:37:52 AM -23.9974 115.7724 318° Northwest 232 267 22,100  Level Aus ATC (RADAR)
Tue 04:38:18 AM -23.9768 115.7520 318° Northwest 229 264 22,100  Level Aus ATC (RADAR)
Tue 04:39:12 AM -23.9284 115.7060 319° Northwest 237 273 22,100  Level Aus ATC (RADAR)
Tue 04:39:42 AM -23.9040 115.6820 318° Northwest 232 267 22,100  Level Aus ATC (RADAR)
Tue 04:40:07 AM -23.8813 115.6608 319° Northwest 239 275 22,100  Level Aus ATC (RADAR)
Tue 04:40:47 AM -23.8480 115.6283 318° Northwest 233 268 22,100  Level Aus ATC (RADAR)
Tue 04:41:22 AM -23.8201 115.6000 317° Northwest 228 262 22,100  Level Aus ATC (RADAR)
Tue 04:41:57 AM -23.7897 115.5709 319° Northwest 233 268 22,100  Level Aus ATC (RADAR)
Tue 04:42:42 AM -23.7516 115.5339 318° Northwest 234 269 22,100 -185 Level Aus ATC (RADAR)
Tue 04:43:02 AM -23.7330 115.5171 320° Northwest 238 274 21,900 -218 Descending Aus ATC (RADAR)
Tue 04:43:37 AM -23.7022 115.4876 319° Northwest 241 277 21,900  Level Aus ATC (RADAR)
Tue 04:45:02 AM -23.6307 115.4177 318° Northwest 234 269 21,900  Level Aus ATC (RADAR)
Tue 04:45:21 AM -23.6125 115.4009 320° Northwest 237 273 21,900  Level Aus ATC (RADAR)
Tue 04:45:32 AM -23.6070 115.3950 320° Northwest 247 284  Descending FlightAware ADS-B
Tue 04:45:56 AM -23.5804 115.3715 320° Northwest 242 278 21,900 19,043 Climbing Aus ATC (RADAR)
Tue 04:46:17 AM -23.5680 115.3580 319° Northwest 247 284  Descending FlightAware ADS-B
Tue 04:46:41 AM -23.5447 115.3345 319° Northwest 231 266 21,900 12,750 Climbing Aus ATC (RADAR)
Tue 04:46:42 AM -23.5430 115.3340 319° Northwest 248 285 150 Descending FlightAware ADS-B
Tue 04:47:12 AM -23.5190 115.3110 319° Northwest 247 284 16,785 Level FlightAware ADS-B
Tue 04:47:42 AM -23.4960 115.2890 319° Northwest 247 284 27,061 Level FlightAware ADS-B
Tue 04:48:01 AM -23.4738 115.2681 319° Northwest 239 275 22,100 30,136 Climbing Aus ATC (RADAR)
Tue 04:48:26 AM -23.4534 115.2477 317° Northwest 234 269 22,100 -126 Level Aus ATC (RADAR)
Tue 04:49:36 AM -23.3926 115.1897 319° Northwest 240 276 21,900 -126 Descending Aus ATC (RADAR)
Tue 04:50:01 AM -23.3699 115.1690 320° Northwest 241 277 21,900  Level Aus ATC (RADAR)
Tue 04:50:26 AM -23.3470 115.1484 320° Northwest 244 281 21,900  Level Aus ATC (RADAR)
Tue 04:51:06 AM -23.3149 115.1154 317° Northwest 233 268 21,900  Level Aus ATC (RADAR)
Tue 04:51:46 AM -23.2805 115.0824 319° Northwest 235 270 21,900  Level Aus ATC (RADAR)
Tue 04:52:21 AM -23.2489 115.0533 320° Northwest 239 275 21,900  Level Aus ATC (RADAR)
Tue 04:53:06 AM -23.2099 115.0163 319° Northwest 237 273 21,900  Level Aus ATC (RADAR)
Tue 04:53:30 AM -23.1909 114.9954 315° West 229 264 21,900  Level Aus ATC (RADAR)
Tue 04:54:41 AM -23.1277 114.9379 320° Northwest 241 277 21,900  Level Aus ATC (RADAR)
Tue 04:55:10 AM -23.1020 114.9129 318° Northwest 238 274 21,900  Level Aus ATC (RADAR)
Tue 04:55:25 AM -23.0892 114.9007 319° Northwest 238 274 21,900 -240 Level Aus ATC (RADAR)
Tue 04:56:00 AM -23.0582 114.8717 319° Northwest 238 274 21,700 -1,059 Descending Aus ATC (RADAR)
Tue 04:56:50 AM -23.0142 114.8283 318° Northwest 237 273 20,400 -1,482 Descending Aus ATC (RADAR)
Tue 04:57:25 AM -22.9848 114.7987 317° Northwest 233 268 19,600 -1,500 Descending Aus ATC (RADAR)
Tue 04:58:10 AM -22.9470 114.7614 318° Northwest 227 261 18,400 -1,543 Descending Aus ATC (RADAR)
Tue 04:58:35 AM -22.9246 114.7414 321° Northwest 229 264 17,800 -1,425 Descending Aus ATC (RADAR)
Tue 04:59:30 AM -22.8763 114.6977 320° Northwest 229 264 16,500 -1,425 Descending Aus ATC (RADAR)
Tue 04:59:55 AM -22.8545 114.6781 320° Northwest 227 261 15,900 -1,440 Descending Aus ATC (RADAR)
Tue 05:00:20 AM -22.8359 114.6575 314° West 221 254 15,300 -1,500 Descending Aus ATC (RADAR)
Tue 05:00:55 AM -22.8056 114.6303 320° Northwest 222 255 14,400 -1,333 Descending Aus ATC (RADAR)
Tue 05:01:41 AM -22.7655 114.5947 321° Northwest 228 262 13,500 -1,185 Descending Aus ATC (RADAR)
Tue 05:02:16 AM -22.7357 114.5667 319° Northwest 229 264 12,800 -1,200 Descending Aus ATC (RADAR)
Tue 05:05:29 AM -22.5431 114.3846 318° Northwest 200 -3,917 Descending Aus ATC (Calculated)
Tue 05:07:00 AM -22.4734 114.3174 318° Northwest  Level Estimated
Tue 05:08:00 AM -22.4274 114.2731 318° Northwest  Level Estimated
Tue 05:09:00 AM -22.3814 114.2288 318° Northwest  Level Estimated
Tue 05:10:00 AM -22.3354 114.1846 318° Northwest  Level Estimated
Tue 05:10:51 AM -22.2355 114.0885 121° Southeast  Level Aus ATC (Calculated)
Tue 05:12:00 AM -22.2356 114.0886 119° Southeast  Level Estimated
Tue 05:13:00 AM -22.2356 114.0886 13° North  Level Estimated
Tue 05:14:00 AM -22.2356 114.0886 13° North  Level Estimated
Tue 05:15:00 AM -22.2356 114.0886 13° North  Level Estimated
Tue 05:16:00 AM -22.2356 114.0886 13° North  Level Estimated
Tue 05:17:00 AM -22.2356 114.0886 13° North  Level Estimated

Login

Don't have an account? Register now (free) for customized features, flight alerts, and more!